sensor_id;sensor_type;location;lat;lon;timestamp;P1;durP1;ratioP1;P2;durP2;ratioP2
70313;SDS011;57725;47.526;18.986;2022-09-29T00:02:17;4.15;;;2.72;;
70313;SDS011;57725;47.526;18.986;2022-09-29T00:04:42;3.67;;;2.67;;
70313;SDS011;57725;47.526;18.986;2022-09-29T00:07:12;3.35;;;2.30;;
70313;SDS011;57725;47.526;18.986;2022-09-29T00:09:37;3.80;;;2.70;;
70313;SDS011;57725;47.526;18.986;2022-09-29T00:12:05;4.72;;;2.40;;
70313;SDS011;57725;47.526;18.986;2022-09-29T00:14:33;3.67;;;2.50;;
70313;SDS011;57725;47.526;18.986;2022-09-29T00:16:58;4.00;;;2.58;;
70313;SDS011;57725;47.526;18.986;2022-09-29T00:19:24;3.45;;;2.60;;
70313;SDS011;57725;47.526;18.986;2022-09-29T00:21:49;3.38;;;2.30;;
70313;SDS011;57725;47.526;18.986;2022-09-29T00:24:14;3.78;;;2.33;;
70313;SDS011;57725;47.526;18.986;2022-09-29T00:26:42;4.50;;;2.38;;
70313;SDS011;57725;47.526;18.986;2022-09-29T00:29:10;4.63;;;2.42;;
70313;SDS011;57725;47.526;18.986;2022-09-29T00:31:40;4.05;;;2.47;;
70313;SDS011;57725;47.526;18.986;2022-09-29T00:34:08;3.63;;;2.28;;
70313;SDS011;57725;47.526;18.986;2022-09-29T00:36:33;4.43;;;2.60;;
70313;SDS011;57725;47.526;18.986;2022-09-29T00:38:59;3.28;;;2.20;;
70313;SDS011;57725;47.526;18.986;2022-09-29T00:41:25;3.00;;;2.35;;
70313;SDS011;57725;47.526;18.986;2022-09-29T00:44:00;4.72;;;3.15;;
70313;SDS011;57725;47.526;18.986;2022-09-29T00:49:15;3.88;;;2.78;;
70313;SDS011;57725;47.526;18.986;2022-09-29T00:51:55;4.15;;;2.85;;
70313;SDS011;57725;47.526;18.986;2022-09-29T00:54:26;3.78;;;2.50;;
70313;SDS011;57725;47.526;18.986;2022-09-29T00:57:00;3.72;;;2.83;;
70313;SDS011;57725;47.526;18.986;2022-09-29T00:59:42;4.85;;;2.88;;
70313;SDS011;57725;47.526;18.986;2022-09-29T01:02:14;3.55;;;2.63;;
70313;SDS011;57725;47.526;18.986;2022-09-29T01:04:41;3.95;;;2.75;;
70313;SDS011;57725;47.526;18.986;2022-09-29T01:07:07;4.28;;;3.15;;
70313;SDS011;57725;47.526;18.986;2022-09-29T01:09:35;4.28;;;2.78;;
70313;SDS011;57725;47.526;18.986;2022-09-29T01:12:06;4.10;;;2.72;;
70313;SDS011;57725;47.526;18.986;2022-09-29T01:14:34;3.50;;;2.60;;
70313;SDS011;57725;47.526;18.986;2022-09-29T01:17:03;4.18;;;2.83;;
70313;SDS011;57725;47.526;18.986;2022-09-29T01:41:43;3.80;;;2.60;;
70313;SDS011;57725;47.526;18.986;2022-09-29T01:47:04;3.92;;;2.83;;
70313;SDS011;57725;47.526;18.986;2022-09-29T01:49:37;5.50;;;2.90;;
70313;SDS011;57725;47.526;18.986;2022-09-29T01:52:10;4.05;;;2.83;;
70313;SDS011;57725;47.526;18.986;2022-09-29T01:54:59;4.28;;;2.97;;
70313;SDS011;57725;47.526;18.986;2022-09-29T02:02:52;4.10;;;2.97;;
70313;SDS011;57725;47.526;18.986;2022-09-29T02:05:25;4.95;;;3.10;;
70313;SDS011;57725;47.526;18.986;2022-09-29T02:07:56;4.28;;;2.92;;
70313;SDS011;57725;47.526;18.986;2022-09-29T02:10:28;3.83;;;2.80;;
70313;SDS011;57725;47.526;18.986;2022-09-29T02:12:57;4.30;;;2.85;;
70313;SDS011;57725;47.526;18.986;2022-09-29T02:15:28;4.28;;;2.75;;
70313;SDS011;57725;47.526;18.986;2022-09-29T02:18:01;4.75;;;3.22;;
70313;SDS011;57725;47.526;18.986;2022-09-29T02:20:31;4.47;;;3.05;;
70313;SDS011;57725;47.526;18.986;2022-09-29T02:22:57;4.72;;;3.35;;
70313;SDS011;57725;47.526;18.986;2022-09-29T02:25:25;5.22;;;2.72;;
70313;SDS011;57725;47.526;18.986;2022-09-29T02:27:50;4.10;;;3.10;;
70313;SDS011;57725;47.526;18.986;2022-09-29T02:30:16;5.13;;;3.20;;
70313;SDS011;57725;47.526;18.986;2022-09-29T02:32:44;4.53;;;3.30;;
70313;SDS011;57725;47.526;18.986;2022-09-29T02:35:10;4.28;;;3.10;;
70313;SDS011;57725;47.526;18.986;2022-09-29T02:37:46;4.30;;;3.33;;
70313;SDS011;57725;47.526;18.986;2022-09-29T02:51:40;4.15;;;3.03;;
70313;SDS011;57725;47.526;18.986;2022-09-29T03:00:11;4.07;;;3.00;;
70313;SDS011;57725;47.526;18.986;2022-09-29T03:02:41;3.92;;;3.03;;
70313;SDS011;57725;47.526;18.986;2022-09-29T03:05:18;4.45;;;3.53;;
70313;SDS011;57725;47.526;18.986;2022-09-29T03:07:47;4.07;;;3.17;;
70313;SDS011;57725;47.526;18.986;2022-09-29T03:10:16;4.28;;;2.90;;
70313;SDS011;57725;47.526;18.986;2022-09-29T03:12:42;5.13;;;3.53;;
70313;SDS011;57725;47.526;18.986;2022-09-29T03:15:10;3.42;;;2.70;;
70313;SDS011;57725;47.526;18.986;2022-09-29T03:17:36;4.85;;;3.10;;
70313;SDS011;57725;47.526;18.986;2022-09-29T03:20:02;3.58;;;3.05;;
70313;SDS011;57725;47.526;18.986;2022-09-29T03:22:28;3.85;;;2.85;;
70313;SDS011;57725;47.526;18.986;2022-09-29T03:24:54;5.40;;;3.40;;
70313;SDS011;57725;47.526;18.986;2022-09-29T03:27:19;3.38;;;2.72;;
70313;SDS011;57725;47.526;18.986;2022-09-29T03:29:44;4.05;;;3.38;;
70313;SDS011;57725;47.526;18.986;2022-09-29T03:32:12;5.88;;;3.30;;
70313;SDS011;57725;47.526;18.986;2022-09-29T03:34:37;4.65;;;3.25;;
70313;SDS011;57725;47.526;18.986;2022-09-29T03:37:03;3.50;;;2.90;;
70313;SDS011;57725;47.526;18.986;2022-09-29T03:39:28;4.90;;;2.75;;
70313;SDS011;57725;47.526;18.986;2022-09-29T03:41:54;3.42;;;2.58;;
70313;SDS011;57725;47.526;18.986;2022-09-29T03:44:19;5.82;;;3.22;;
70313;SDS011;57725;47.526;18.986;2022-09-29T03:46:45;3.97;;;3.03;;
70313;SDS011;57725;47.526;18.986;2022-09-29T03:49:11;4.80;;;2.92;;
70313;SDS011;57725;47.526;18.986;2022-09-29T03:51:38;4.28;;;2.97;;
70313;SDS011;57725;47.526;18.986;2022-09-29T03:54:06;3.40;;;2.80;;
70313;SDS011;57725;47.526;18.986;2022-09-29T03:56:32;3.83;;;2.97;;
70313;SDS011;57725;47.526;18.986;2022-09-29T03:58:58;4.60;;;3.25;;
70313;SDS011;57725;47.526;18.986;2022-09-29T04:01:23;3.10;;;2.58;;
70313;SDS011;57725;47.526;18.986;2022-09-29T04:03:49;4.78;;;3.25;;
70313;SDS011;57725;47.526;18.986;2022-09-29T04:06:14;3.67;;;2.97;;
70313;SDS011;57725;47.526;18.986;2022-09-29T04:08:40;4.25;;;2.63;;
70313;SDS011;57725;47.526;18.986;2022-09-29T04:11:07;4.75;;;2.88;;
70313;SDS011;57725;47.526;18.986;2022-09-29T04:13:33;4.43;;;2.75;;
70313;SDS011;57725;47.526;18.986;2022-09-29T04:16:02;3.90;;;3.25;;
70313;SDS011;57725;47.526;18.986;2022-09-29T04:18:31;4.45;;;3.00;;
70313;SDS011;57725;47.526;18.986;2022-09-29T04:20:57;3.38;;;2.75;;
70313;SDS011;57725;47.526;18.986;2022-09-29T04:23:24;3.83;;;2.65;;
70313;SDS011;57725;47.526;18.986;2022-09-29T04:25:51;4.40;;;3.17;;
70313;SDS011;57725;47.526;18.986;2022-09-29T04:28:16;3.80;;;2.83;;
70313;SDS011;57725;47.526;18.986;2022-09-29T04:30:42;3.83;;;2.78;;
70313;SDS011;57725;47.526;18.986;2022-09-29T04:33:07;3.75;;;2.80;;
70313;SDS011;57725;47.526;18.986;2022-09-29T04:35:33;5.03;;;3.42;;
70313;SDS011;57725;47.526;18.986;2022-09-29T04:38:01;3.28;;;2.45;;
70313;SDS011;57725;47.526;18.986;2022-09-29T04:40:29;4.65;;;2.95;;
70313;SDS011;57725;47.526;18.986;2022-09-29T04:42:54;4.72;;;3.15;;
70313;SDS011;57725;47.526;18.986;2022-09-29T04:45:22;3.53;;;2.97;;
70313;SDS011;57725;47.526;18.986;2022-09-29T04:47:52;3.10;;;2.65;;
70313;SDS011;57725;47.526;18.986;2022-09-29T04:50:18;3.88;;;2.78;;
70313;SDS011;57725;47.526;18.986;2022-09-29T04:52:43;4.07;;;3.15;;
70313;SDS011;57725;47.526;18.986;2022-09-29T04:55:09;3.58;;;2.42;;
70313;SDS011;57725;47.526;18.986;2022-09-29T04:57:36;3.15;;;2.60;;
70313;SDS011;57725;47.526;18.986;2022-09-29T05:00:03;3.53;;;2.90;;
70313;SDS011;57725;47.526;18.986;2022-09-29T05:02:29;3.42;;;2.47;;
70313;SDS011;57725;47.526;18.986;2022-09-29T05:04:57;3.55;;;2.60;;
70313;SDS011;57725;47.526;18.986;2022-09-29T05:07:23;4.45;;;3.28;;
70313;SDS011;57725;47.526;18.986;2022-09-29T05:09:48;3.30;;;2.53;;
70313;SDS011;57725;47.526;18.986;2022-09-29T05:12:13;3.78;;;2.90;;
70313;SDS011;57725;47.526;18.986;2022-09-29T05:14:39;3.50;;;2.78;;
70313;SDS011;57725;47.526;18.986;2022-09-29T05:17:04;4.28;;;3.10;;
70313;SDS011;57725;47.526;18.986;2022-09-29T05:19:36;3.70;;;2.90;;
70313;SDS011;57725;47.526;18.986;2022-09-29T05:22:01;3.85;;;2.90;;
70313;SDS011;57725;47.526;18.986;2022-09-29T05:24:29;3.63;;;2.70;;
70313;SDS011;57725;47.526;18.986;2022-09-29T05:26:54;5.13;;;2.78;;
70313;SDS011;57725;47.526;18.986;2022-09-29T05:29:21;4.40;;;3.35;;
70313;SDS011;57725;47.526;18.986;2022-09-29T05:31:49;3.03;;;2.67;;
70313;SDS011;57725;47.526;18.986;2022-09-29T05:34:15;3.35;;;2.70;;
70313;SDS011;57725;47.526;18.986;2022-09-29T05:36:40;3.78;;;3.08;;
70313;SDS011;57725;47.526;18.986;2022-09-29T05:39:09;4.35;;;3.28;;
70313;SDS011;57725;47.526;18.986;2022-09-29T05:41:34;3.70;;;2.75;;
70313;SDS011;57725;47.526;18.986;2022-09-29T05:44:02;4.47;;;3.20;;
70313;SDS011;57725;47.526;18.986;2022-09-29T05:46:30;4.25;;;3.45;;
70313;SDS011;57725;47.526;18.986;2022-09-29T05:48:55;4.47;;;3.17;;
70313;SDS011;57725;47.526;18.986;2022-09-29T05:51:22;3.95;;;2.88;;
70313;SDS011;57725;47.526;18.986;2022-09-29T05:53:49;3.33;;;2.90;;
70313;SDS011;57725;47.526;18.986;2022-09-29T05:56:16;3.60;;;2.85;;
70313;SDS011;57725;47.526;18.986;2022-09-29T05:58:43;5.25;;;2.67;;
70313;SDS011;57725;47.526;18.986;2022-09-29T06:01:14;4.15;;;3.28;;
70313;SDS011;57725;47.526;18.986;2022-09-29T06:03:41;4.80;;;3.15;;
70313;SDS011;57725;47.526;18.986;2022-09-29T06:06:18;3.92;;;3.00;;
70313;SDS011;57725;47.526;18.986;2022-09-29T06:08:45;4.93;;;2.97;;
70313;SDS011;57725;47.526;18.986;2022-09-29T06:11:15;4.15;;;3.08;;
70313;SDS011;57725;47.526;18.986;2022-09-29T06:13:48;3.58;;;3.03;;
70313;SDS011;57725;47.526;18.986;2022-09-29T06:16:16;4.10;;;3.15;;
70313;SDS011;57725;47.526;18.986;2022-09-29T06:18:45;3.90;;;3.03;;
70313;SDS011;57725;47.526;18.986;2022-09-29T06:21:13;3.75;;;3.08;;
70313;SDS011;57725;47.526;18.986;2022-09-29T06:23:42;4.82;;;3.80;;
70313;SDS011;57725;47.526;18.986;2022-09-29T06:26:09;2.95;;;2.58;;
70313;SDS011;57725;47.526;18.986;2022-09-29T06:28:36;3.08;;;2.70;;
70313;SDS011;57725;47.526;18.986;2022-09-29T06:31:10;4.22;;;2.90;;
70313;SDS011;57725;47.526;18.986;2022-09-29T06:33:39;4.13;;;3.47;;
70313;SDS011;57725;47.526;18.986;2022-09-29T06:36:14;3.78;;;3.28;;
70313;SDS011;57725;47.526;18.986;2022-09-29T06:39:01;3.67;;;3.10;;
70313;SDS011;57725;47.526;18.986;2022-09-29T06:41:30;3.38;;;2.65;;
70313;SDS011;57725;47.526;18.986;2022-09-29T06:43:59;3.45;;;2.78;;
70313;SDS011;57725;47.526;18.986;2022-09-29T06:46:25;5.05;;;3.60;;
70313;SDS011;57725;47.526;18.986;2022-09-29T06:48:57;4.13;;;3.25;;
70313;SDS011;57725;47.526;18.986;2022-09-29T06:51:23;4.13;;;2.92;;
70313;SDS011;57725;47.526;18.986;2022-09-29T06:53:49;3.15;;;2.60;;
70313;SDS011;57725;47.526;18.986;2022-09-29T06:56:16;3.70;;;3.25;;
70313;SDS011;57725;47.526;18.986;2022-09-29T06:58:43;3.10;;;2.63;;
70313;SDS011;57725;47.526;18.986;2022-09-29T07:01:09;4.35;;;3.22;;
70313;SDS011;57725;47.526;18.986;2022-09-29T07:03:38;4.10;;;3.10;;
70313;SDS011;57725;47.526;18.986;2022-09-29T07:06:04;4.38;;;3.15;;
70313;SDS011;57725;47.526;18.986;2022-09-29T07:08:30;3.38;;;2.97;;
70313;SDS011;57725;47.526;18.986;2022-09-29T07:10:59;4.57;;;3.03;;
70313;SDS011;57725;47.526;18.986;2022-09-29T07:13:30;3.70;;;2.80;;
70313;SDS011;57725;47.526;18.986;2022-09-29T07:15:55;2.55;;;2.33;;
70313;SDS011;57725;47.526;18.986;2022-09-29T07:18:26;3.85;;;2.72;;
70313;SDS011;57725;47.526;18.986;2022-09-29T07:20:52;2.80;;;2.17;;
70313;SDS011;57725;47.526;18.986;2022-09-29T07:23:17;3.00;;;2.40;;
70313;SDS011;57725;47.526;18.986;2022-09-29T07:25:44;3.80;;;2.70;;
70313;SDS011;57725;47.526;18.986;2022-09-29T07:28:12;3.17;;;2.53;;
70313;SDS011;57725;47.526;18.986;2022-09-29T07:30:40;3.80;;;2.78;;
70313;SDS011;57725;47.526;18.986;2022-09-29T07:33:05;3.45;;;2.75;;
70313;SDS011;57725;47.526;18.986;2022-09-29T07:35:30;2.75;;;2.30;;
70313;SDS011;57725;47.526;18.986;2022-09-29T07:37:58;3.05;;;2.33;;
70313;SDS011;57725;47.526;18.986;2022-09-29T07:40:24;2.83;;;2.13;;
70313;SDS011;57725;47.526;18.986;2022-09-29T07:42:50;3.05;;;2.55;;
70313;SDS011;57725;47.526;18.986;2022-09-29T07:45:16;2.63;;;2.15;;
70313;SDS011;57725;47.526;18.986;2022-09-29T07:47:44;3.55;;;2.38;;
70313;SDS011;57725;47.526;18.986;2022-09-29T07:50:12;5.85;;;2.83;;
70313;SDS011;57725;47.526;18.986;2022-09-29T07:52:37;3.60;;;2.53;;
70313;SDS011;57725;47.526;18.986;2022-09-29T07:55:05;2.67;;;1.92;;
70313;SDS011;57725;47.526;18.986;2022-09-29T07:57:31;9.38;;;2.80;;
70313;SDS011;57725;47.526;18.986;2022-09-29T07:59:56;15.82;;;3.08;;
70313;SDS011;57725;47.526;18.986;2022-09-29T08:02:24;20.17;;;3.05;;
70313;SDS011;57725;47.526;18.986;2022-09-29T08:04:52;20.23;;;3.45;;
70313;SDS011;57725;47.526;18.986;2022-09-29T08:07:18;17.10;;;2.90;;
70313;SDS011;57725;47.526;18.986;2022-09-29T08:09:43;14.80;;;3.47;;
70313;SDS011;57725;47.526;18.986;2022-09-29T08:12:09;25.45;;;3.30;;
70313;SDS011;57725;47.526;18.986;2022-09-29T08:14:39;17.75;;;3.10;;
70313;SDS011;57725;47.526;18.986;2022-09-29T08:17:05;20.73;;;3.20;;
70313;SDS011;57725;47.526;18.986;2022-09-29T08:19:30;15.18;;;2.33;;
70313;SDS011;57725;47.526;18.986;2022-09-29T08:22:01;16.30;;;3.08;;
70313;SDS011;57725;47.526;18.986;2022-09-29T08:24:28;14.52;;;3.60;;
70313;SDS011;57725;47.526;18.986;2022-09-29T08:26:55;15.00;;;3.15;;
70313;SDS011;57725;47.526;18.986;2022-09-29T08:29:21;18.65;;;2.92;;
70313;SDS011;57725;47.526;18.986;2022-09-29T08:31:47;11.55;;;2.85;;
70313;SDS011;57725;47.526;18.986;2022-09-29T08:34:12;12.88;;;2.50;;
70313;SDS011;57725;47.526;18.986;2022-09-29T08:36:38;19.80;;;3.47;;
70313;SDS011;57725;47.526;18.986;2022-09-29T08:39:03;12.50;;;2.53;;
70313;SDS011;57725;47.526;18.986;2022-09-29T08:47:00;13.32;;;2.70;;
70313;SDS011;57725;47.526;18.986;2022-09-29T08:49:35;11.27;;;2.55;;
70313;SDS011;57725;47.526;18.986;2022-09-29T08:52:16;10.93;;;2.88;;
70313;SDS011;57725;47.526;18.986;2022-09-29T08:54:46;11.68;;;2.65;;
70313;SDS011;57725;47.526;18.986;2022-09-29T08:57:16;551.30;;;406.85;;
70313;SDS011;57725;47.526;18.986;2022-09-29T08:59:51;437.67;;;321.48;;
70313;SDS011;57725;47.526;18.986;2022-09-29T09:07:27;152.77;;;66.93;;
70313;SDS011;57725;47.526;18.986;2022-09-29T09:15:37;237.10;;;101.05;;
70313;SDS011;57725;47.526;18.986;2022-09-29T09:21:06;373.98;;;94.55;;
70313;SDS011;57725;47.526;18.986;2022-09-29T09:26:07;362.02;;;92.43;;
70313;SDS011;57725;47.526;18.986;2022-09-29T09:28:39;360.30;;;90.57;;
70313;SDS011;57725;47.526;18.986;2022-09-29T09:31:19;331.38;;;86.28;;
70313;SDS011;57725;47.526;18.986;2022-09-29T09:33:58;316.90;;;84.22;;
70313;SDS011;57725;47.526;18.986;2022-09-29T09:38:59;263.73;;;81.28;;
70313;SDS011;57725;47.526;18.986;2022-09-29T09:41:29;286.05;;;78.68;;
70313;SDS011;57725;47.526;18.986;2022-09-29T09:44:02;255.82;;;78.53;;
70313;SDS011;57725;47.526;18.986;2022-09-29T09:46:35;246.13;;;78.63;;
70313;SDS011;57725;47.526;18.986;2022-09-29T09:49:15;235.20;;;73.38;;
70313;SDS011;57725;47.526;18.986;2022-09-29T09:51:49;215.90;;;96.22;;
70313;SDS011;57725;47.526;18.986;2022-09-29T09:54:37;337.30;;;163.70;;
70313;SDS011;57725;47.526;18.986;2022-09-29T09:57:09;157.60;;;75.50;;
70313;SDS011;57725;47.526;18.986;2022-09-29T09:59:58;131.82;;;50.97;;
70313;SDS011;57725;47.526;18.986;2022-09-29T10:02:29;140.65;;;50.50;;
70313;SDS011;57725;47.526;18.986;2022-09-29T10:04:55;141.90;;;52.13;;
70313;SDS011;57725;47.526;18.986;2022-09-29T10:07:21;126.82;;;50.42;;
70313;SDS011;57725;47.526;18.986;2022-09-29T10:09:54;125.13;;;48.13;;
70313;SDS011;57725;47.526;18.986;2022-09-29T10:12:22;121.85;;;49.38;;
70313;SDS011;57725;47.526;18.986;2022-09-29T10:14:52;110.78;;;48.90;;
70313;SDS011;57725;47.526;18.986;2022-09-29T10:17:22;100.50;;;47.42;;
70313;SDS011;57725;47.526;18.986;2022-09-29T10:22:19;114.35;;;45.08;;
70313;SDS011;57725;47.526;18.986;2022-09-29T10:24:48;109.57;;;46.33;;
70313;SDS011;57725;47.526;18.986;2022-09-29T10:27:21;89.85;;;42.75;;
70313;SDS011;57725;47.526;18.986;2022-09-29T10:29:50;105.03;;;44.03;;
70313;SDS011;57725;47.526;18.986;2022-09-29T10:32:30;97.82;;;42.28;;
70313;SDS011;57725;47.526;18.986;2022-09-29T10:35:16;87.10;;;42.10;;
70313;SDS011;57725;47.526;18.986;2022-09-29T10:40:16;88.95;;;41.10;;
70313;SDS011;57725;47.526;18.986;2022-09-29T10:42:47;73.90;;;39.80;;
70313;SDS011;57725;47.526;18.986;2022-09-29T10:45:16;67.50;;;40.05;;
70313;SDS011;57725;47.526;18.986;2022-09-29T10:50:24;62.80;;;38.33;;
70313;SDS011;57725;47.526;18.986;2022-09-29T10:52:55;68.30;;;38.25;;
70313;SDS011;57725;47.526;18.986;2022-09-29T10:55:27;70.53;;;39.15;;
70313;SDS011;57725;47.526;18.986;2022-09-29T10:57:57;64.75;;;37.47;;
70313;SDS011;57725;47.526;18.986;2022-09-29T11:05:52;62.65;;;36.95;;
70313;SDS011;57725;47.526;18.986;2022-09-29T11:08:26;59.58;;;35.22;;
70313;SDS011;57725;47.526;18.986;2022-09-29T11:13:50;58.42;;;35.53;;
70313;SDS011;57725;47.526;18.986;2022-09-29T11:16:38;57.13;;;35.08;;
70313;SDS011;57725;47.526;18.986;2022-09-29T11:19:06;56.70;;;35.58;;
70313;SDS011;57725;47.526;18.986;2022-09-29T11:45:06;48.97;;;24.50;;
70313;SDS011;57725;47.526;18.986;2022-09-29T11:53:16;35.67;;;23.65;;
70313;SDS011;57725;47.526;18.986;2022-09-29T12:12:41;517.88;;;196.70;;
70313;SDS011;57725;47.526;18.986;2022-09-29T12:18:13;475.17;;;184.90;;
70313;SDS011;57725;47.526;18.986;2022-09-29T12:20:44;484.15;;;184.65;;
70313;SDS011;57725;47.526;18.986;2022-09-29T12:23:14;434.83;;;178.70;;
70313;SDS011;57725;47.526;18.986;2022-09-29T12:26:27;434.48;;;175.77;;
70313;SDS011;57725;47.526;18.986;2022-09-29T12:28:43;425.67;;;171.68;;
70313;SDS011;57725;47.526;18.986;2022-09-29T12:31:21;391.67;;;173.18;;
70313;SDS011;57725;47.526;18.986;2022-09-29T12:33:57;408.45;;;168.93;;
70313;SDS011;57725;47.526;18.986;2022-09-29T12:39:25;380.92;;;163.65;;
70313;SDS011;57725;47.526;18.986;2022-09-29T12:45:05;351.67;;;161.23;;
70313;SDS011;57725;47.526;18.986;2022-09-29T12:50:15;309.15;;;152.88;;
70313;SDS011;57725;47.526;18.986;2022-09-29T12:58:13;299.20;;;152.45;;
70313;SDS011;57725;47.526;18.986;2022-09-29T13:00:47;275.95;;;144.90;;
70313;SDS011;57725;47.526;18.986;2022-09-29T13:06:17;272.63;;;145.70;;
70313;SDS011;57725;47.526;18.986;2022-09-29T13:17:28;261.17;;;139.38;;
70313;SDS011;57725;47.526;18.986;2022-09-29T13:31:03;229.95;;;135.73;;
70313;SDS011;57725;47.526;18.986;2022-09-29T13:33:32;237.95;;;136.07;;
70313;SDS011;57725;47.526;18.986;2022-09-29T13:35:58;221.90;;;133.60;;
70313;SDS011;57725;47.526;18.986;2022-09-29T13:46:35;198.75;;;126.35;;
70313;SDS011;57725;47.526;18.986;2022-09-29T13:49:11;194.05;;;124.93;;
70313;SDS011;57725;47.526;18.986;2022-09-29T13:51:43;198.10;;;123.70;;
70313;SDS011;57725;47.526;18.986;2022-09-29T13:59:36;186.13;;;122.32;;
70313;SDS011;57725;47.526;18.986;2022-09-29T14:11:04;182.25;;;118.10;;
70313;SDS011;57725;47.526;18.986;2022-09-29T14:13:47;179.07;;;117.00;;
70313;SDS011;57725;47.526;18.986;2022-09-29T14:19:21;175.13;;;114.05;;
70313;SDS011;57725;47.526;18.986;2022-09-29T14:29:40;129.13;;;86.32;;
70313;SDS011;57725;47.526;18.986;2022-09-29T14:32:14;135.95;;;88.63;;
70313;SDS011;57725;47.526;18.986;2022-09-29T14:34:46;129.65;;;86.80;;
70313;SDS011;57725;47.526;18.986;2022-09-29T14:37:18;125.63;;;84.75;;
70313;SDS011;57725;47.526;18.986;2022-09-29T14:39:47;124.63;;;81.88;;
70313;SDS011;57725;47.526;18.986;2022-09-29T14:42:35;122.85;;;80.65;;
70313;SDS011;57725;47.526;18.986;2022-09-29T14:45:04;111.57;;;74.30;;
70313;SDS011;57725;47.526;18.986;2022-09-29T14:51:09;111.68;;;75.13;;
70313;SDS011;57725;47.526;18.986;2022-09-29T14:57:11;109.15;;;72.00;;
70313;SDS011;57725;47.526;18.986;2022-09-29T15:02:34;105.65;;;71.72;;
70313;SDS011;57725;47.526;18.986;2022-09-29T15:07:51;105.30;;;70.68;;
70313;SDS011;57725;47.526;18.986;2022-09-29T15:10:37;99.63;;;68.75;;
70313;SDS011;57725;47.526;18.986;2022-09-29T15:13:22;106.55;;;70.38;;
70313;SDS011;57725;47.526;18.986;2022-09-29T15:15:59;98.28;;;69.95;;
70313;SDS011;57725;47.526;18.986;2022-09-29T15:24:37;101.18;;;67.93;;
70313;SDS011;57725;47.526;18.986;2022-09-29T15:27:14;93.03;;;66.32;;
70313;SDS011;57725;47.526;18.986;2022-09-29T15:29:44;94.20;;;66.07;;
70313;SDS011;57725;47.526;18.986;2022-09-29T15:32:26;91.18;;;64.35;;
70313;SDS011;57725;47.526;18.986;2022-09-29T15:35:03;89.03;;;63.58;;
70313;SDS011;57725;47.526;18.986;2022-09-29T15:40:14;91.35;;;61.45;;
70313;SDS011;57725;47.526;18.986;2022-09-29T15:42:44;87.38;;;62.05;;
70313;SDS011;57725;47.526;18.986;2022-09-29T15:45:20;88.53;;;61.47;;
70313;SDS011;57725;47.526;18.986;2022-09-29T15:47:48;85.00;;;60.53;;
70313;SDS011;57725;47.526;18.986;2022-09-29T15:50:25;84.05;;;57.80;;
70313;SDS011;57725;47.526;18.986;2022-09-29T15:52:51;82.72;;;58.20;;
70313;SDS011;57725;47.526;18.986;2022-09-29T15:55:22;84.43;;;60.25;;
70313;SDS011;57725;47.526;18.986;2022-09-29T15:57:51;85.97;;;59.92;;
70313;SDS011;57725;47.526;18.986;2022-09-29T16:02:48;78.07;;;57.03;;
70313;SDS011;57725;47.526;18.986;2022-09-29T16:05:20;79.90;;;56.90;;
70313;SDS011;57725;47.526;18.986;2022-09-29T16:07:59;78.38;;;56.72;;
70313;SDS011;57725;47.526;18.986;2022-09-29T16:10:35;78.93;;;56.05;;
70313;SDS011;57725;47.526;18.986;2022-09-29T16:13:14;78.18;;;54.65;;
70313;SDS011;57725;47.526;18.986;2022-09-29T16:15:46;79.97;;;55.03;;
70313;SDS011;57725;47.526;18.986;2022-09-29T16:18:20;71.78;;;53.22;;
70313;SDS011;57725;47.526;18.986;2022-09-29T16:20:49;75.68;;;53.95;;
70313;SDS011;57725;47.526;18.986;2022-09-29T16:25:45;76.60;;;54.47;;
70313;SDS011;57725;47.526;18.986;2022-09-29T16:28:24;73.57;;;52.50;;
70313;SDS011;57725;47.526;18.986;2022-09-29T16:31:01;73.88;;;52.78;;
70313;SDS011;57725;47.526;18.986;2022-09-29T16:33:30;70.60;;;50.88;;
70313;SDS011;57725;47.526;18.986;2022-09-29T16:36:16;69.88;;;50.17;;
70313;SDS011;57725;47.526;18.986;2022-09-29T16:38:44;70.90;;;51.38;;
70313;SDS011;57725;47.526;18.986;2022-09-29T16:51:56;68.78;;;49.17;;
70313;SDS011;57725;47.526;18.986;2022-09-29T16:54:32;66.07;;;46.28;;
70313;SDS011;57725;47.526;18.986;2022-09-29T16:57:09;65.63;;;47.03;;
70313;SDS011;57725;47.526;18.986;2022-09-29T16:59:48;64.32;;;48.17;;
70313;SDS011;57725;47.526;18.986;2022-09-29T17:02:16;61.03;;;45.08;;
70313;SDS011;57725;47.526;18.986;2022-09-29T17:04:51;65.68;;;44.88;;
70313;SDS011;57725;47.526;18.986;2022-09-29T17:07:18;60.78;;;44.10;;
70313;SDS011;57725;47.526;18.986;2022-09-29T17:09:46;59.15;;;42.45;;
70313;SDS011;57725;47.526;18.986;2022-09-29T17:12:15;56.05;;;42.90;;
70313;SDS011;57725;47.526;18.986;2022-09-29T17:14:41;56.80;;;41.70;;
70313;SDS011;57725;47.526;18.986;2022-09-29T17:17:22;59.85;;;42.95;;
70313;SDS011;57725;47.526;18.986;2022-09-29T17:19:51;57.60;;;43.28;;
70313;SDS011;57725;47.526;18.986;2022-09-29T17:22:33;54.78;;;40.40;;
70313;SDS011;57725;47.526;18.986;2022-09-29T17:25:03;56.00;;;40.80;;
70313;SDS011;57725;47.526;18.986;2022-09-29T17:27:32;53.70;;;41.25;;
70313;SDS011;57725;47.526;18.986;2022-09-29T17:30:20;52.95;;;39.97;;
70313;SDS011;57725;47.526;18.986;2022-09-29T17:32:51;50.20;;;38.05;;
70313;SDS011;57725;47.526;18.986;2022-09-29T17:35:23;50.38;;;37.30;;
70313;SDS011;57725;47.526;18.986;2022-09-29T17:37:52;50.70;;;36.67;;
70313;SDS011;57725;47.526;18.986;2022-09-29T17:40:23;51.65;;;36.92;;
70313;SDS011;57725;47.526;18.986;2022-09-29T17:42:51;49.00;;;36.05;;
70313;SDS011;57725;47.526;18.986;2022-09-29T17:45:20;47.90;;;35.85;;
70313;SDS011;57725;47.526;18.986;2022-09-29T17:47:47;46.08;;;33.97;;
70313;SDS011;57725;47.526;18.986;2022-09-29T17:52:39;42.83;;;32.10;;
70313;SDS011;57725;47.526;18.986;2022-09-29T17:55:04;43.90;;;33.58;;
70313;SDS011;57725;47.526;18.986;2022-09-29T17:57:35;45.10;;;33.55;;
70313;SDS011;57725;47.526;18.986;2022-09-29T18:00:11;42.60;;;32.67;;
70313;SDS011;57725;47.526;18.986;2022-09-29T18:02:45;42.65;;;32.50;;
70313;SDS011;57725;47.526;18.986;2022-09-29T18:05:11;42.45;;;31.17;;
70313;SDS011;57725;47.526;18.986;2022-09-29T18:07:37;38.92;;;30.70;;
70313;SDS011;57725;47.526;18.986;2022-09-29T18:10:11;36.97;;;29.25;;
70313;SDS011;57725;47.526;18.986;2022-09-29T18:12:43;38.58;;;29.73;;
70313;SDS011;57725;47.526;18.986;2022-09-29T18:15:08;38.88;;;29.70;;
70313;SDS011;57725;47.526;18.986;2022-09-29T18:17:34;38.97;;;29.05;;
70313;SDS011;57725;47.526;18.986;2022-09-29T18:20:13;38.08;;;29.58;;
70313;SDS011;57725;47.526;18.986;2022-09-29T18:22:46;40.70;;;29.50;;
70313;SDS011;57725;47.526;18.986;2022-09-29T18:25:14;39.30;;;28.15;;
70313;SDS011;57725;47.526;18.986;2022-09-29T18:27:47;36.03;;;26.85;;
70313;SDS011;57725;47.526;18.986;2022-09-29T18:32:47;36.63;;;28.30;;
70313;SDS011;57725;47.526;18.986;2022-09-29T18:35:18;38.08;;;26.92;;
70313;SDS011;57725;47.526;18.986;2022-09-29T18:37:48;33.72;;;26.50;;
70313;SDS011;57725;47.526;18.986;2022-09-29T18:40:13;36.88;;;26.60;;
70313;SDS011;57725;47.526;18.986;2022-09-29T18:42:43;35.53;;;27.42;;
70313;SDS011;57725;47.526;18.986;2022-09-29T18:45:17;35.10;;;27.17;;
70313;SDS011;57725;47.526;18.986;2022-09-29T18:47:47;33.38;;;25.15;;